地図

経路データ

SID SEASON NUMBER BASIN SUBBASIN NAME ISO_TIME NATURE LAT LON WMO_WIND WMO_PRES WMO_AGENCY TRACK_TYPE DIST2LAND LANDFALL IFLAG USA_AGENCY USA_ATCF_ID USA_LAT USA_LON USA_RECORD USA_STATUS USA_WIND USA_PRES USA_SSHS USA_R34_NE USA_R34_SE USA_R34_SW USA_R34_NW USA_R50_NE USA_R50_SE USA_R50_SW USA_R50_NW USA_R64_NE USA_R64_SE USA_R64_SW USA_R64_NW USA_POCI USA_ROCI USA_RMW USA_EYE TOKYO_LAT TOKYO_LON TOKYO_GRADE TOKYO_WIND TOKYO_PRES TOKYO_R50_DIR TOKYO_R50_LONG TOKYO_R50_SHORT TOKYO_R30_DIR TOKYO_R30_LONG TOKYO_R30_SHORT TOKYO_LAND CMA_LAT CMA_LON CMA_CAT CMA_WIND CMA_PRES HKO_LAT HKO_LON HKO_CAT HKO_WIND HKO_PRES NEWDELHI_LAT NEWDELHI_LON NEWDELHI_GRADE NEWDELHI_WIND NEWDELHI_PRES NEWDELHI_CI NEWDELHI_DP NEWDELHI_POCI REUNION_LAT REUNION_LON REUNION_TYPE REUNION_WIND REUNION_PRES REUNION_TNUM REUNION_CI REUNION_RMW REUNION_R34_NE REUNION_R34_SE REUNION_R34_SW REUNION_R34_NW REUNION_R50_NE REUNION_R50_SE REUNION_R50_SW REUNION_R50_NW REUNION_R64_NE REUNION_R64_SE REUNION_R64_SW REUNION_R64_NW BOM_LAT BOM_LON BOM_TYPE BOM_WIND BOM_PRES BOM_TNUM BOM_CI BOM_RMW BOM_R34_NE BOM_R34_SE BOM_R34_SW BOM_R34_NW BOM_R50_NE BOM_R50_SE BOM_R50_SW BOM_R50_NW BOM_R64_NE BOM_R64_SE BOM_R64_SW BOM_R64_NW BOM_ROCI BOM_POCI BOM_EYE BOM_POS_METHOD BOM_PRES_METHOD NADI_LAT NADI_LON NADI_CAT NADI_WIND NADI_PRES WELLINGTON_LAT WELLINGTON_LON WELLINGTON_WIND WELLINGTON_PRES DS824_LAT DS824_LON DS824_STAGE DS824_WIND DS824_PRES TD9636_LAT TD9636_LON TD9636_STAGE TD9636_WIND TD9636_PRES TD9635_LAT TD9635_LON TD9635_WIND TD9635_PRES TD9635_ROCI NEUMANN_LAT NEUMANN_LON NEUMANN_CLASS NEUMANN_WIND NEUMANN_PRES MLC_LAT MLC_LON MLC_CLASS MLC_WIND MLC_PRES USA_GUST BOM_GUST BOM_GUST_PER REUNION_GUST REUNION_GUST_PER USA_SEAHGT USA_SEARAD_NE USA_SEARAD_SE USA_SEARAD_SW USA_SEARAD_NW STORM_SPEED STORM_DIR
1973212N12259 1973 74 EP MM GLENDA 1973-07-30 12:00:00 TS 11.7000 -100.800 30 hurdat_epa main 567 566 O________OO___ hurdat_epa EP071973 11.7000 -100.800 TD 30 -1 11.7000 -100.800 TC 30 11.7000 -100.800 1 30 8 290
1973212N12259 1973 74 EP MM GLENDA 1973-07-30 15:00:00 TS 11.8447 -101.200 main 571 560 P________PP___ EP071973 11.8401 -101.200 TD 35 0 11.8401 -101.200 TC 35 11.8630 -101.200 1 33 8 291
1973212N12259 1973 74 EP MM GLENDA 1973-07-30 18:00:00 TS 12.0061 -101.600 40 hurdat_epa main 564 556 O________OP___ hurdat_epa EP071973 12.0000 -101.600 TS 40 0 12.0000 -101.600 TC 40 12.0306 -101.600 1 37 9 294
1973212N12259 1973 74 EP MM GLENDA 1973-07-30 21:00:00 TS 12.1955 -102.000 main 561 556 P________PP___ EP071973 12.1924 -102.000 TS 42 0 12.1924 -102.000 TC 42 12.2078 -102.000 1 41 9 297
1973212N12259 1973 74 EP MM GLENDA 1973-07-31 00:00:00 TS 12.4000 -102.400 45 hurdat_epa main 562 553 O________OO___ hurdat_epa EP071973 12.4000 -102.400 TS 45 0 12.4000 -102.400 TC 45 12.4000 -102.400 2 45 9 297
1973212N12259 1973 74 EP MM GLENDA 1973-07-31 03:00:00 TS 12.5960 -102.794 main 556 547 P________PP___ EP071973 12.5924 -102.793 TS 47 0 12.5924 -102.793 TC 47 12.6103 -102.802 2 46 9 297
1973212N12259 1973 74 EP MM GLENDA 1973-07-31 06:00:00 TS 12.8069 -103.203 50 hurdat_epa main 551 545 O________OP___ hurdat_epa EP071973 12.8000 -103.200 TS 50 0 12.8000 -103.200 TC 50 12.8345 -103.213 2 47 9 299
1973212N12259 1973 74 EP MM GLENDA 1973-07-31 09:00:00 TS 13.0472 -103.637 main 551 542 P________PP___ EP071973 13.0424 -103.635 TS 50 0 13.0424 -103.635 TC 50 13.0665 -103.642 2 48 10 299
1973212N12259 1973 74 EP MM GLENDA 1973-07-31 12:00:00 TS 13.3000 -104.100 50 hurdat_epa main 549 539 O________OO___ hurdat_epa EP071973 13.3000 -104.100 TS 50 0 13.3000 -104.100 TC 50 13.3000 -104.100 2 50 11 298
1973212N12259 1973 74 EP MM GLENDA 1973-07-31 15:00:00 TS 13.5476 -104.584 main 546 528 P________PP___ EP071973 13.5574 -104.585 TS 50 0 13.5574 -104.585 TC 50 13.5085 -104.581 2 47 11 296
1973212N12259 1973 74 EP MM GLENDA 1973-07-31 18:00:00 TS 13.7839 -105.098 50 hurdat_epa main 531 528 O________OP___ hurdat_epa EP071973 13.8000 -105.100 TS 50 0 13.8000 -105.100 TC 50 13.7195 -105.091 2 45 11 293
1973212N12259 1973 74 EP MM GLENDA 1973-07-31 21:00:00 TS 13.9771 -105.634 main 530 530 P________PP___ EP071973 13.9849 -105.635 TS 45 0 13.9849 -105.635 TC 45 13.9458 -105.631 2 42 11 291
1973212N12259 1973 74 EP MM GLENDA 1973-08-01 00:00:00 TS 14.2000 -106.200 40 hurdat_epa main 541 538 O________OO___ hurdat_epa EP071973 14.2000 -106.200 TS 40 0 14.2000 -106.200 TC 40 14.2000 -106.200 2 40 13 297
1973212N12259 1973 74 EP MM GLENDA 1973-08-01 03:00:00 TS 14.5376 -106.786 main 552 543 P________PP___ EP071973 14.5348 -106.785 TS 40 0 14.5348 -106.785 TC 40 14.5488 -106.791 2 40 14 301
1973212N12259 1973 74 EP MM GLENDA 1973-08-01 06:00:00 TS 14.9034 -107.402 40 hurdat_epa main 554 550 O________OP___ hurdat_epa EP071973 14.9000 -107.400 TS 40 0 14.9000 -107.400 TC 40 14.9171 -107.411 2 40 14 300
1973212N12259 1973 74 EP MM GLENDA 1973-08-01 09:00:00 TS 15.2463 -108.044 main 562 559 P________PP___ EP071973 15.2449 -108.042 TS 40 0 15.2449 -108.042 TC 40 15.2519 -108.050 2 40 14 295
1973212N12259 1973 74 EP MM GLENDA 1973-08-01 12:00:00 TS 15.5000 -108.700 40 hurdat_epa main 585 585 O________OO___ hurdat_epa EP071973 15.5000 -108.700 TS 40 0 15.5000 -108.700 TC 40 15.5000 -108.700 2 40 13 286
1973212N12259 1973 74 EP MM GLENDA 1973-08-01 15:00:00 TS 15.6029 -109.349 main 623 623 P________PP___ EP071973 15.6023 -109.350 TS 37 0 15.6023 -109.350 TC 37 15.6051 -109.344 2 37 13 275
1973212N12259 1973 74 EP MM GLENDA 1973-08-01 18:00:00 TS 15.6039 -109.999 35 hurdat_epa main 677 677 O________OP___ hurdat_epa EP071973 15.6000 -110.000 TS 35 0 15.6000 -110.000 TC 35 15.6193 -109.994 2 35 13 269
1973212N12259 1973 74 EP MM GLENDA 1973-08-01 21:00:00 TS 15.5726 -110.649 main 725 725 P________PP___ EP071973 15.5723 -110.650 TS 35 0 15.5723 -110.650 TC 35 15.5739 -110.647 2 32 13 265
1973212N12259 1973 74 EP MM GLENDA 1973-08-02 00:00:00 TS 15.5000 -111.300 35 hurdat_epa main 790 790 O________OO___ hurdat_epa EP071973 15.5000 -111.300 TS 35 0 15.5000 -111.300 TC 35 15.5000 -111.300 1 30 13 262
1973212N12259 1973 74 EP MM GLENDA 1973-08-02 03:00:00 TS 15.4058 -111.950 main 857 857 P________PP___ EP071973 15.3998 -111.950 TS 35 0 15.3998 -111.950 TC 35 15.4297 -111.951 1 30 13 261
1973212N12259 1973 74 EP MM GLENDA 1973-08-02 06:00:00 TS 15.3084 -112.600 35 hurdat_epa main 892 892 O________OP___ hurdat_epa EP071973 15.3000 -112.600 TS 35 0 15.3000 -112.600 TC 35 15.3418 -112.601 1 30 13 263
1973212N12259 1973 74 EP MM GLENDA 1973-08-02 09:00:00 TS 15.2454 -113.250 main 928 928 P________PP___ EP071973 15.2423 -113.250 TS 35 0 15.2423 -113.250 TC 35 15.2579 -113.251 1 30 13 265
1973212N12259 1973 74 EP MM GLENDA 1973-08-02 12:00:00 TS 15.2000 -113.900 35 hurdat_epa main 953 953 O________OO___ hurdat_epa EP071973 15.2000 -113.900 TS 35 0 15.2000 -113.900 TC 35 15.2000 -113.900 1 30 13 265
1973212N12259 1973 74 EP MM GLENDA 1973-08-02 15:00:00 TS 15.1362 -114.555 main 997 997 P________PP___ EP071973 15.1273 -114.550 TS 35 0 15.1273 -114.550 TC 35 15.1718 -114.574 1 30 13 266
1973212N12259 1973 74 EP MM GLENDA 1973-08-02 18:00:00 TS 15.1150 -115.209 35 hurdat_epa main 1029 1029 O________OP___ hurdat_epa EP071973 15.1000 -115.200 TS 35 0 15.1000 -115.200 TC 35 15.1750 -115.245 1 30 13 272
1973212N12259 1973 74 EP MM GLENDA 1973-08-02 21:00:00 TS 15.1791 -115.871 main 1060 1060 P________PP___ EP071973 15.1699 -115.865 TS 35 0 15.1699 -115.865 TC 35 15.2156 -115.893 1 30 13 278
1973212N12259 1973 74 EP MM GLENDA 1973-08-03 00:00:00 TS 15.3000 -116.500 35 hurdat_epa main 1090 1090 O________OO___ hurdat_epa EP071973 15.3000 -116.500 TS 35 0 15.3000 -116.500 TC 35 15.3000 -116.500 1 30 12 282
1973212N12259 1973 74 EP MM GLENDA 1973-08-03 03:00:00 TS 15.4341 -117.074 main 1122 1113 P________PP___ EP071973 15.4348 -117.080 TS 35 0 15.4348 -117.080 TC 35 15.4311 -117.051 1 30 11 286
1973212N12259 1973 74 EP MM GLENDA 1973-08-03 06:00:00 TS 15.6008 -117.592 35 hurdat_epa main 1141 1140 O________OP___ hurdat_epa EP071973 15.6000 -117.600 TS 35 0 15.6000 -117.600 TC 35 15.6041 -117.560 1 30 10 291
1973212N12259 1973 74 EP MM GLENDA 1973-08-03 09:00:00 TS 15.7999 -118.060 main 1162 1162 P________PP___ EP071973 15.7998 -118.065 TS 35 0 15.7998 -118.065 TC 35 15.8000 -118.039 1 30 10 295
1973212N12259 1973 74 EP MM GLENDA 1973-08-03 12:00:00 TS 16.0000 -118.500 35 hurdat_epa main 1178 1178 O________OO___ hurdat_epa EP071973 16.0000 -118.500 TS 35 0 16.0000 -118.500 TC 35 16.0000 -118.500 1 30 9 292
1973212N12259 1973 74 EP MM GLENDA 1973-08-03 15:00:00 TS 16.1540 -118.954 main 1191 1191 P________PP___ EP071973 16.1499 -118.950 TS 35 0 16.1499 -118.950 TC 35 16.1706 -118.969 1 30 9 290
1973212N12259 1973 74 EP MM GLENDA 1973-08-03 18:00:00 TS 16.3084 -119.405 35 hurdat_epa main 1207 1205 O________OP___ hurdat_epa EP071973 16.3000 -119.400 TS 35 0 16.3000 -119.400 TC 35 16.3420 -119.423 1 30 9 292
1973212N12259 1973 74 EP MM GLENDA 1973-08-03 21:00:00 TS 16.4974 -119.853 main 1223 1222 P________PP___ EP071973 16.4924 -119.850 TS 35 0 16.4924 -119.850 TC 35 16.5175 -119.866 1 30 9 295
1973212N12259 1973 74 EP MM GLENDA 1973-08-04 00:00:00 TS 16.7000 -120.300 35 hurdat_epa main 1235 1234 O________OO___ hurdat_epa EP071973 16.7000 -120.300 TS 35 0 16.7000 -120.300 TC 35 16.7000 -120.300 1 30 9 295
1973212N12259 1973 74 EP MM GLENDA 1973-08-04 03:00:00 TS 16.8968 -120.750 main 1255 1255 P________PP___ EP071973 16.9000 -120.758 TS 35 0 16.9000 -120.758 TC 35 16.8842 -120.720 1 30 9 295
1973212N12259 1973 74 EP MM GLENDA 1973-08-04 06:00:00 TS 17.0954 -121.187 35 hurdat_epa main 1269 1269 O________OP___ hurdat_epa EP071973 17.1000 -121.200 TS 35 0 17.1000 -121.200 TC 35 17.0768 -121.136 1 30 9 296
1973212N12259 1973 74 EP MM GLENDA 1973-08-04 09:00:00 TS 17.2900 -121.586 main 1285 1285 P________PP___ EP071973 17.2923 -121.593 TS 35 0 17.2923 -121.593 TC 35 17.2810 -121.558 1 30 9 298
1973212N12259 1973 74 EP MM GLENDA 1973-08-04 12:00:00 TS 17.5000 -122.000 35 hurdat_epa main 1302 1302 O________OO___ hurdat_epa EP071973 17.5000 -122.000 TS 35 0 17.5000 -122.000 TC 35 17.5000 -122.000 1 30 10 297
1973212N12259 1973 74 EP MM GLENDA 1973-08-04 15:00:00 TS 17.7331 -122.494 main 1329 1329 P________PP___ EP071973 17.7425 -122.485 TS 40 0 17.7425 -122.485 TC 40 17.6957 -122.531 1 33 11 297
1973212N12259 1973 74 EP MM GLENDA 1973-08-04 18:00:00 TS 17.9822 -123.015 45 hurdat_epa main 1350 1350 O________OP___ hurdat_epa EP071973 18.0000 -123.000 TS 45 0 18.0000 -123.000 TC 45 17.9110 -123.075 1 37 11 296
1973212N12259 1973 74 EP MM GLENDA 1973-08-04 21:00:00 TS 18.2162 -123.540 main 1371 1369 P________PP___ EP071973 18.2276 -123.530 TS 45 0 18.2276 -123.530 TC 45 18.1707 -123.581 1 41 11 299
1973212N12259 1973 74 EP MM GLENDA 1973-08-05 00:00:00 TS 18.5000 -124.000 45 hurdat_epa main 1378 1374 O________OO___ hurdat_epa EP071973 18.5000 -124.000 TS 45 0 18.5000 -124.000 TC 45 18.5000 -124.000 2 45 10 310
1973212N12259 1973 74 EP MM GLENDA 1973-08-05 03:00:00 TS 18.8612 -124.353 main 1372 1354 P________PP___ EP071973 18.8474 -124.367 TS 42 0 18.8474 -124.367 TC 42 18.9162 -124.295 2 43 10 326
1973212N12259 1973 74 EP MM GLENDA 1973-08-05 06:00:00 TS 19.3208 -124.578 40 hurdat_epa main 1354 1322 O________OP___ hurdat_epa EP071973 19.3000 -124.600 TS 40 0 19.3000 -124.600 TC 40 19.4042 -124.488 2 42 11 343
1973212N12259 1973 74 EP MM GLENDA 1973-08-05 09:00:00 TS 19.8820 -124.674 main 1315 1270 P________PP___ EP071973 19.8675 -124.690 TS 40 0 19.8675 -124.690 TC 40 19.9401 -124.611 2 41 12 355
1973212N12259 1973 74 EP MM GLENDA 1973-08-05 12:00:00 TS 20.5000 -124.700 40 hurdat_epa main 1270 O________OO___ hurdat_epa EP071973 20.5000 -124.700 TS 40 0 20.5000 -124.700 TC 40 20.5000 -124.700 2 40 12 359

IBTrACS Databaseについて

本データベースは、米国NOAAが公開する1842年以降の世界の熱帯低気圧のベストトラックデータアーカイブInternational Best Track Archive for Climate Stewardship (IBTrACS)を、ウェブで閲覧しやすい形式に変換したものです。

最終更新日:2021-10-21